Bryte, California
Current Conditions -  °F | °C
As of 8:19 AM on Monday 26 Jan 2015 (Local Time) from KSAC Reporting Station
Haze Haze  
Wind Chill: 39°   Ceiling: Unl
Heat Index: 43°   Visibility: 2mi
Dew Point: 39°   Wind: 6mph
Humidity: 87%   Direction: 340°NNW
Pressure: 30.09"   Gusts: NA
Location:  38.5921°N, 121.545°W
Report Text: KSAC 261619Z 34005KT 2SM BR FEW003 06/04 A3009 RMK AO2 $
Loading
Personal Weather Stations






























Interactive Weather Map New forecast layout! Learn more

10-Day Weather Forecast

Advertisements
Track Severe Weather on mobile